sensor_id;sensor_type;location;lat;lon;timestamp;pressure;altitude;pressure_sealevel;temperature;humidity
38191;BME280;25191;47.510;19.124;2023-08-24T00:16:24;100351.41;;;25.34;58.67
38191;BME280;25191;47.510;19.124;2023-08-24T00:36:24;100389.31;;;25.45;59.29
38191;BME280;25191;47.510;19.124;2023-08-24T00:56:25;100238.31;;;24.32;59.65
38191;BME280;25191;47.510;19.124;2023-08-24T01:16:28;100357.75;;;24.76;60.27
38191;BME280;25191;47.510;19.124;2023-08-24T01:36:29;100221.78;;;24.10;60.51
38191;BME280;25191;47.510;19.124;2023-08-24T01:56:30;100358.16;;;24.81;60.98
38191;BME280;25191;47.510;19.124;2023-08-24T02:16:31;100171.97;;;23.66;61.16
38191;BME280;25191;47.510;19.124;2023-08-24T02:36:31;100196.72;;;23.75;61.38
38191;BME280;25191;47.510;19.124;2023-08-24T02:56:33;100286.91;;;24.21;62.06
38191;BME280;25191;47.510;19.124;2023-08-24T03:16:33;100372.25;;;24.62;62.24
38191;BME280;25191;47.510;19.124;2023-08-24T03:36:34;100361.41;;;24.36;62.53
38191;BME280;25191;47.510;19.124;2023-08-24T03:56:34;100360.44;;;24.17;62.83
38191;BME280;25191;47.510;19.124;2023-08-24T04:16:35;100393.72;;;24.29;62.87
38191;BME280;25191;47.510;19.124;2023-08-24T04:36:35;100386.59;;;24.20;63.32
38191;BME280;25191;47.510;19.124;2023-08-24T04:56:35;100399.56;;;24.23;63.16
38191;BME280;25191;47.510;19.124;2023-08-24T05:16:36;100419.63;;;24.45;62.63
38191;BME280;25191;47.510;19.124;2023-08-24T05:36:36;100427.16;;;24.50;62.64
38191;BME280;25191;47.510;19.124;2023-08-24T05:56:37;100432.31;;;24.71;62.25
38191;BME280;25191;47.510;19.124;2023-08-24T06:16:37;100419.75;;;24.64;61.35
38191;BME280;25191;47.510;19.124;2023-08-24T06:36:37;100438.75;;;25.26;60.52
38191;BME280;25191;47.510;19.124;2023-08-24T06:56:38;100440.66;;;25.44;59.74
38191;BME280;25191;47.510;19.124;2023-08-24T07:16:38;100436.66;;;25.67;58.73
38191;BME280;25191;47.510;19.124;2023-08-24T07:36:39;100430.22;;;25.98;57.71
38191;BME280;25191;47.510;19.124;2023-08-24T07:56:39;100419.09;;;26.12;55.99
38191;BME280;25191;47.510;19.124;2023-08-24T08:16:39;100423.22;;;26.43;55.34
38191;BME280;25191;47.510;19.124;2023-08-24T08:36:40;100414.31;;;26.52;52.59
38191;BME280;25191;47.510;19.124;2023-08-24T08:56:41;100414.56;;;26.67;51.60
38191;BME280;25191;47.510;19.124;2023-08-24T09:16:42;100351.09;;;26.56;48.72
38191;BME280;25191;47.510;19.124;2023-08-24T09:36:43;100400.13;;;26.79;50.37
38191;BME280;25191;47.510;19.124;2023-08-24T09:56:46;100383.16;;;26.80;51.35
38191;BME280;25191;47.510;19.124;2023-08-24T10:16:48;100383.28;;;26.97;50.78
38191;BME280;25191;47.510;19.124;2023-08-24T10:36:49;100346.63;;;27.09;50.12
38191;BME280;25191;47.510;19.124;2023-08-24T10:56:53;100340.22;;;27.28;49.87
38191;BME280;25191;47.510;19.124;2023-08-24T11:17:00;100322.97;;;27.32;48.68
38191;BME280;25191;47.510;19.124;2023-08-24T11:37:18;100305.91;;;27.43;47.85
38191;BME280;25191;47.510;19.124;2023-08-24T11:57:21;100307.94;;;27.66;46.15
38191;BME280;25191;47.510;19.124;2023-08-24T12:17:22;100282.69;;;27.86;46.08
38191;BME280;25191;47.510;19.124;2023-08-24T12:37:22;100281.34;;;27.99;45.84
38191;BME280;25191;47.510;19.124;2023-08-24T12:57:22;100261.44;;;28.84;42.18
38191;BME280;25191;47.510;19.124;2023-08-24T13:17:24;100124.72;;;27.87;42.78
38191;BME280;25191;47.510;19.124;2023-08-24T13:37:25;100222.34;;;28.59;41.80
38191;BME280;25191;47.510;19.124;2023-08-24T13:57:25;100180.34;;;28.38;43.88
38191;BME280;25191;47.510;19.124;2023-08-24T14:17:26;100187.28;;;28.48;44.02
38191;BME280;25191;47.510;19.124;2023-08-24T14:37:26;100160.69;;;28.39;44.39
38191;BME280;25191;47.510;19.124;2023-08-24T14:57:27;100174.59;;;28.58;44.24
38191;BME280;25191;47.510;19.124;2023-08-24T15:17:29;100183.75;;;28.95;45.11
38191;BME280;25191;47.510;19.124;2023-08-24T15:37:30;100175.97;;;28.85;44.60
38191;BME280;25191;47.510;19.124;2023-08-24T15:57:31;100155.97;;;28.89;43.32
38191;BME280;25191;47.510;19.124;2023-08-24T16:17:32;100109.50;;;28.52;44.19
38191;BME280;25191;47.510;19.124;2023-08-24T16:37:32;100149.75;;;28.66;44.79
38191;BME280;25191;47.510;19.124;2023-08-24T16:57:33;100155.78;;;28.51;45.37
38191;BME280;25191;47.510;19.124;2023-08-24T17:17:33;100128.81;;;28.54;46.92
38191;BME280;25191;47.510;19.124;2023-08-24T17:37:34;100132.66;;;28.52;46.93
38191;BME280;25191;47.510;19.124;2023-08-24T17:57:36;100139.09;;;28.26;43.95
38191;BME280;25191;47.510;19.124;2023-08-24T18:17:37;100178.25;;;28.09;43.80
38191;BME280;25191;47.510;19.124;2023-08-24T18:37:40;100204.53;;;27.95;44.24
38191;BME280;25191;47.510;19.124;2023-08-24T18:57:41;100200.88;;;27.88;44.74
38191;BME280;25191;47.510;19.124;2023-08-24T19:17:42;100202.47;;;27.15;47.65
38191;BME280;25191;47.510;19.124;2023-08-24T19:37:43;100202.13;;;27.18;46.63
38191;BME280;25191;47.510;19.124;2023-08-24T19:57:47;100226.38;;;26.72;48.00
38191;BME280;25191;47.510;19.124;2023-08-24T20:17:48;100231.31;;;26.59;49.43
38191;BME280;25191;47.510;19.124;2023-08-24T20:37:49;100232.81;;;26.35;48.94
38191;BME280;25191;47.510;19.124;2023-08-24T20:57:50;100240.78;;;26.09;50.17
38191;BME280;25191;47.510;19.124;2023-08-24T21:17:51;100228.34;;;25.91;51.03
38191;BME280;25191;47.510;19.124;2023-08-24T21:37:51;100230.63;;;25.68;52.02
38191;BME280;25191;47.510;19.124;2023-08-24T21:57:51;100203.84;;;25.53;52.36
38191;BME280;25191;47.510;19.124;2023-08-24T22:17:54;100173.44;;;25.29;52.01
38191;BME280;25191;47.510;19.124;2023-08-24T22:37:54;100166.78;;;25.25;52.87
38191;BME280;25191;47.510;19.124;2023-08-24T22:57:55;100152.69;;;25.06;53.25
38191;BME280;25191;47.510;19.124;2023-08-24T23:17:55;100183.31;;;24.91;54.30
38191;BME280;25191;47.510;19.124;2023-08-24T23:37:55;100222.88;;;24.65;55.28
38191;BME280;25191;47.510;19.124;2023-08-24T23:57:56;100238.75;;;24.74;54.73
